sensor_id;sensor_type;location;lat;lon;timestamp;temperature;humidity
51719;DHT22;37795;53.236;5.704;2022-12-10T00:01:45;12.00;66.90
51719;DHT22;37795;53.236;5.704;2022-12-10T00:04:12;12.00;66.90
51719;DHT22;37795;53.236;5.704;2022-12-10T00:06:39;12.00;67.00
51719;DHT22;37795;53.236;5.704;2022-12-10T00:09:10;11.90;67.00
51719;DHT22;37795;53.236;5.704;2022-12-10T00:11:37;11.90;67.00
51719;DHT22;37795;53.236;5.704;2022-12-10T00:14:03;11.90;67.10
51719;DHT22;37795;53.236;5.704;2022-12-10T00:16:29;11.90;67.10
51719;DHT22;37795;53.236;5.704;2022-12-10T00:18:59;11.90;67.10
51719;DHT22;37795;53.236;5.704;2022-12-10T00:21:28;11.90;67.10
51719;DHT22;37795;53.236;5.704;2022-12-10T00:23:55;11.80;67.20
51719;DHT22;37795;53.236;5.704;2022-12-10T00:26:22;11.80;67.20
51719;DHT22;37795;53.236;5.704;2022-12-10T00:28:49;11.80;67.20
51719;DHT22;37795;53.236;5.704;2022-12-10T00:31:17;11.80;67.30
51719;DHT22;37795;53.236;5.704;2022-12-10T00:33:43;11.80;67.20
51719;DHT22;37795;53.236;5.704;2022-12-10T00:36:13;11.80;67.20
51719;DHT22;37795;53.236;5.704;2022-12-10T00:38:39;11.70;67.30
51719;DHT22;37795;53.236;5.704;2022-12-10T00:41:05;11.90;67.20
51719;DHT22;37795;53.236;5.704;2022-12-10T00:43:31;12.10;66.40
51719;DHT22;37795;53.236;5.704;2022-12-10T00:45:57;12.30;65.70
51719;DHT22;37795;53.236;5.704;2022-12-10T00:48:24;12.60;65.00
51719;DHT22;37795;53.236;5.704;2022-12-10T00:51:04;12.80;64.10
51719;DHT22;37795;53.236;5.704;2022-12-10T00:53:31;12.90;63.60
51719;DHT22;37795;53.236;5.704;2022-12-10T00:55:57;13.00;63.20
51719;DHT22;37795;53.236;5.704;2022-12-10T00:58:26;13.10;62.90
51719;DHT22;37795;53.236;5.704;2022-12-10T01:00:52;13.00;62.90
51719;DHT22;37795;53.236;5.704;2022-12-10T01:03:17;13.00;62.90
51719;DHT22;37795;53.236;5.704;2022-12-10T01:05:43;12.90;63.20
51719;DHT22;37795;53.236;5.704;2022-12-10T01:08:09;12.70;63.50
51719;DHT22;37795;53.236;5.704;2022-12-10T01:10:35;12.60;63.60
51719;DHT22;37795;53.236;5.704;2022-12-10T01:13:04;12.50;64.00
51719;DHT22;37795;53.236;5.704;2022-12-10T01:15:29;12.40;64.20
51719;DHT22;37795;53.236;5.704;2022-12-10T01:17:55;12.30;64.40
51719;DHT22;37795;53.236;5.704;2022-12-10T01:20:21;12.20;64.60
51719;DHT22;37795;53.236;5.704;2022-12-10T01:22:46;12.20;64.80
51719;DHT22;37795;53.236;5.704;2022-12-10T01:25:12;12.10;64.90
51719;DHT22;37795;53.236;5.704;2022-12-10T01:27:38;12.00;65.10
51719;DHT22;37795;53.236;5.704;2022-12-10T01:30:04;12.00;65.30
51719;DHT22;37795;53.236;5.704;2022-12-10T01:32:29;12.10;65.30
51719;DHT22;37795;53.236;5.704;2022-12-10T01:34:55;12.30;64.90
51719;DHT22;37795;53.236;5.704;2022-12-10T01:37:21;12.40;64.30
51719;DHT22;37795;53.236;5.704;2022-12-10T01:39:46;12.60;63.70
51719;DHT22;37795;53.236;5.704;2022-12-10T01:42:13;12.80;63.40
51719;DHT22;37795;53.236;5.704;2022-12-10T01:47:08;13.10;62.20
51719;DHT22;37795;53.236;5.704;2022-12-10T01:49:36;13.20;61.70
51719;DHT22;37795;53.236;5.704;2022-12-10T01:52:05;13.10;61.60
51719;DHT22;37795;53.236;5.704;2022-12-10T01:54:34;13.00;61.80
51719;DHT22;37795;53.236;5.704;2022-12-10T01:57:06;12.90;62.20
51719;DHT22;37795;53.236;5.704;2022-12-10T01:59:33;12.80;62.40
51719;DHT22;37795;53.236;5.704;2022-12-10T02:02:11;12.60;62.70
51719;DHT22;37795;53.236;5.704;2022-12-10T02:10:24;12.20;63.80
51719;DHT22;37795;53.236;5.704;2022-12-10T02:15:29;12.00;64.30
51719;DHT22;37795;53.236;5.704;2022-12-10T02:18:11;11.90;64.50
51719;DHT22;37795;53.236;5.704;2022-12-10T02:20:44;11.80;64.80
51719;DHT22;37795;53.236;5.704;2022-12-10T02:23:36;11.80;64.90
51719;DHT22;37795;53.236;5.704;2022-12-10T02:26:25;11.70;65.10
51719;DHT22;37795;53.236;5.704;2022-12-10T02:29:13;11.60;65.20
51719;DHT22;37795;53.236;5.704;2022-12-10T02:34:21;11.80;65.40
51719;DHT22;37795;53.236;5.704;2022-12-10T02:36:49;12.00;64.60
51719;DHT22;37795;53.236;5.704;2022-12-10T02:39:20;12.00;64.20
51719;DHT22;37795;53.236;5.704;2022-12-10T02:41:54;12.20;64.10
51719;DHT22;37795;53.236;5.704;2022-12-10T02:44:21;12.40;63.30
51719;DHT22;37795;53.236;5.704;2022-12-10T02:46:53;12.70;62.60
51719;DHT22;37795;53.236;5.704;2022-12-10T02:49:20;12.90;61.80
51719;DHT22;37795;53.236;5.704;2022-12-10T02:51:46;12.90;61.40
51719;DHT22;37795;53.236;5.704;2022-12-10T02:54:41;12.90;61.30
51719;DHT22;37795;53.236;5.704;2022-12-10T03:00:08;12.50;62.40
51719;DHT22;37795;53.236;5.704;2022-12-10T03:05:36;12.20;63.90
51719;DHT22;37795;53.236;5.704;2022-12-10T03:08:14;12.20;64.30
51719;DHT22;37795;53.236;5.704;2022-12-10T03:10:48;12.20;64.50
51719;DHT22;37795;53.236;5.704;2022-12-10T03:13:19;12.20;64.60
51719;DHT22;37795;53.236;5.704;2022-12-10T03:15:47;12.30;64.70
51719;DHT22;37795;53.236;5.704;2022-12-10T03:18:17;12.30;64.70
51719;DHT22;37795;53.236;5.704;2022-12-10T03:20:45;12.40;64.80
51719;DHT22;37795;53.236;5.704;2022-12-10T03:23:15;12.50;64.70
51719;DHT22;37795;53.236;5.704;2022-12-10T03:25:42;12.60;64.60
51719;DHT22;37795;53.236;5.704;2022-12-10T03:28:08;12.70;64.50
51719;DHT22;37795;53.236;5.704;2022-12-10T03:30:36;12.80;64.40
51719;DHT22;37795;53.236;5.704;2022-12-10T03:33:03;12.90;64.20
51719;DHT22;37795;53.236;5.704;2022-12-10T03:35:30;13.00;64.10
51719;DHT22;37795;53.236;5.704;2022-12-10T03:37:56;13.10;63.60
51719;DHT22;37795;53.236;5.704;2022-12-10T03:40:23;13.50;62.60
51719;DHT22;37795;53.236;5.704;2022-12-10T03:42:49;13.80;61.80
51719;DHT22;37795;53.236;5.704;2022-12-10T03:45:15;13.90;61.60
51719;DHT22;37795;53.236;5.704;2022-12-10T03:47:41;14.00;61.60
51719;DHT22;37795;53.236;5.704;2022-12-10T03:50:08;14.00;61.60
51719;DHT22;37795;53.236;5.704;2022-12-10T03:52:34;13.90;61.80
51719;DHT22;37795;53.236;5.704;2022-12-10T03:55:00;13.90;62.10
51719;DHT22;37795;53.236;5.704;2022-12-10T03:57:26;13.80;62.40
51719;DHT22;37795;53.236;5.704;2022-12-10T03:59:51;13.80;62.70
51719;DHT22;37795;53.236;5.704;2022-12-10T04:02:17;13.80;62.70
51719;DHT22;37795;53.236;5.704;2022-12-10T04:04:43;13.90;62.80
51719;DHT22;37795;53.236;5.704;2022-12-10T04:07:08;13.90;62.80
51719;DHT22;37795;53.236;5.704;2022-12-10T04:09:34;14.00;62.80
51719;DHT22;37795;53.236;5.704;2022-12-10T04:12:00;14.10;62.70
51719;DHT22;37795;53.236;5.704;2022-12-10T04:14:26;14.10;62.70
51719;DHT22;37795;53.236;5.704;2022-12-10T04:17:12;14.20;62.50
51719;DHT22;37795;53.236;5.704;2022-12-10T04:19:38;14.30;62.40
51719;DHT22;37795;53.236;5.704;2022-12-10T04:22:04;14.40;62.30
51719;DHT22;37795;53.236;5.704;2022-12-10T04:24:48;14.50;62.10
51719;DHT22;37795;53.236;5.704;2022-12-10T04:27:37;14.60;62.00
51719;DHT22;37795;53.236;5.704;2022-12-10T04:30:08;14.70;61.90
51719;DHT22;37795;53.236;5.704;2022-12-10T04:32:34;14.80;61.40
51719;DHT22;37795;53.236;5.704;2022-12-10T04:34:59;15.00;60.90
51719;DHT22;37795;53.236;5.704;2022-12-10T04:37:26;15.10;60.50
51719;DHT22;37795;53.236;5.704;2022-12-10T04:39:52;15.10;60.60
51719;DHT22;37795;53.236;5.704;2022-12-10T04:42:18;15.10;60.60
51719;DHT22;37795;53.236;5.704;2022-12-10T04:44:44;15.00;60.90
51719;DHT22;37795;53.236;5.704;2022-12-10T04:47:10;15.00;61.00
51719;DHT22;37795;53.236;5.704;2022-12-10T04:49:36;15.00;61.40
51719;DHT22;37795;53.236;5.704;2022-12-10T04:52:04;15.40;61.20
51719;DHT22;37795;53.236;5.704;2022-12-10T04:54:29;15.10;61.40
51719;DHT22;37795;53.236;5.704;2022-12-10T04:56:55;15.10;61.50
51719;DHT22;37795;53.236;5.704;2022-12-10T04:59:21;15.30;61.30
51719;DHT22;37795;53.236;5.704;2022-12-10T05:01:47;15.60;60.70
51719;DHT22;37795;53.236;5.704;2022-12-10T05:04:15;15.70;60.10
51719;DHT22;37795;53.236;5.704;2022-12-10T05:06:41;15.50;60.10
51719;DHT22;37795;53.236;5.704;2022-12-10T05:09:08;15.20;60.80
51719;DHT22;37795;53.236;5.704;2022-12-10T05:11:34;14.90;61.20
51719;DHT22;37795;53.236;5.704;2022-12-10T05:14:01;14.70;61.50
51719;DHT22;37795;53.236;5.704;2022-12-10T05:16:28;14.60;61.90
51719;DHT22;37795;53.236;5.704;2022-12-10T05:18:55;14.50;62.10
51719;DHT22;37795;53.236;5.704;2022-12-10T05:21:23;14.40;62.40
51719;DHT22;37795;53.236;5.704;2022-12-10T05:23:51;14.40;62.40
51719;DHT22;37795;53.236;5.704;2022-12-10T05:28:45;14.50;61.80
51719;DHT22;37795;53.236;5.704;2022-12-10T05:31:16;14.30;62.30
51719;DHT22;37795;53.236;5.704;2022-12-10T05:33:42;14.20;62.60
51719;DHT22;37795;53.236;5.704;2022-12-10T05:36:09;14.00;62.90
51719;DHT22;37795;53.236;5.704;2022-12-10T05:38:35;14.00;63.00
51719;DHT22;37795;53.236;5.704;2022-12-10T05:41:09;13.90;63.20
51719;DHT22;37795;53.236;5.704;2022-12-10T05:43:36;13.80;63.40
51719;DHT22;37795;53.236;5.704;2022-12-10T05:46:06;13.80;63.50
51719;DHT22;37795;53.236;5.704;2022-12-10T05:48:33;13.60;63.70
51719;DHT22;37795;53.236;5.704;2022-12-10T05:51:06;13.60;64.10
51719;DHT22;37795;53.236;5.704;2022-12-10T05:53:32;13.50;64.10
51719;DHT22;37795;53.236;5.704;2022-12-10T05:56:13;13.50;64.20
51719;DHT22;37795;53.236;5.704;2022-12-10T05:58:40;13.40;64.30
51719;DHT22;37795;53.236;5.704;2022-12-10T06:01:18;13.40;64.40
51719;DHT22;37795;53.236;5.704;2022-12-10T06:03:45;13.40;64.40
51719;DHT22;37795;53.236;5.704;2022-12-10T06:06:12;13.30;64.50
51719;DHT22;37795;53.236;5.704;2022-12-10T06:08:38;13.30;64.50
51719;DHT22;37795;53.236;5.704;2022-12-10T06:11:09;13.40;64.40
51719;DHT22;37795;53.236;5.704;2022-12-10T06:13:36;13.70;63.70
51719;DHT22;37795;53.236;5.704;2022-12-10T06:16:06;13.90;63.00
51719;DHT22;37795;53.236;5.704;2022-12-10T06:18:32;14.10;62.50
51719;DHT22;37795;53.236;5.704;2022-12-10T06:20:57;14.20;62.00
51719;DHT22;37795;53.236;5.704;2022-12-10T06:23:23;14.30;61.50
51719;DHT22;37795;53.236;5.704;2022-12-10T06:25:48;14.40;61.20
51719;DHT22;37795;53.236;5.704;2022-12-10T06:28:14;14.40;60.90
51719;DHT22;37795;53.236;5.704;2022-12-10T06:30:40;14.40;60.70
51719;DHT22;37795;53.236;5.704;2022-12-10T06:33:06;14.40;60.80
51719;DHT22;37795;53.236;5.704;2022-12-10T06:35:31;14.20;61.00
51719;DHT22;37795;53.236;5.704;2022-12-10T06:37:57;14.00;61.40
51719;DHT22;37795;53.236;5.704;2022-12-10T06:40:23;13.90;61.80
51719;DHT22;37795;53.236;5.704;2022-12-10T06:42:51;13.70;62.00
51719;DHT22;37795;53.236;5.704;2022-12-10T06:45:17;13.60;62.30
51719;DHT22;37795;53.236;5.704;2022-12-10T06:47:42;13.50;62.50
51719;DHT22;37795;53.236;5.704;2022-12-10T06:50:09;13.50;62.80
51719;DHT22;37795;53.236;5.704;2022-12-10T06:58:56;13.60;62.70
51719;DHT22;37795;53.236;5.704;2022-12-10T07:01:24;13.10;63.60
51719;DHT22;37795;53.236;5.704;2022-12-10T07:03:54;13.10;63.70
51719;DHT22;37795;53.236;5.704;2022-12-10T07:06:21;13.30;63.40
51719;DHT22;37795;53.236;5.704;2022-12-10T07:08:48;13.40;62.80
51719;DHT22;37795;53.236;5.704;2022-12-10T07:11:18;13.60;62.60
51719;DHT22;37795;53.236;5.704;2022-12-10T07:13:44;13.80;61.90
51719;DHT22;37795;53.236;5.704;2022-12-10T07:16:19;13.90;61.40
51719;DHT22;37795;53.236;5.704;2022-12-10T07:18:46;14.10;61.00
51719;DHT22;37795;53.236;5.704;2022-12-10T07:21:24;17.10;54.80
51719;DHT22;37795;53.236;5.704;2022-12-10T07:23:51;19.40;49.90
51719;DHT22;37795;53.236;5.704;2022-12-10T07:26:17;21.30;46.30
51719;DHT22;37795;53.236;5.704;2022-12-10T07:28:42;22.00;45.10
51719;DHT22;37795;53.236;5.704;2022-12-10T07:31:09;23.90;42.30
51719;DHT22;37795;53.236;5.704;2022-12-10T07:33:35;24.70;40.90
51719;DHT22;37795;53.236;5.704;2022-12-10T07:36:05;24.60;40.90
51719;DHT22;37795;53.236;5.704;2022-12-10T07:38:31;24.00;41.50
51719;DHT22;37795;53.236;5.704;2022-12-10T07:40:57;23.20;42.40
51719;DHT22;37795;53.236;5.704;2022-12-10T07:43:22;22.40;43.50
51719;DHT22;37795;53.236;5.704;2022-12-10T07:45:48;21.70;44.60
51719;DHT22;37795;53.236;5.704;2022-12-10T07:48:14;20.90;45.70
51719;DHT22;37795;53.236;5.704;2022-12-10T07:50:40;20.10;46.90
51719;DHT22;37795;53.236;5.704;2022-12-10T07:53:06;19.40;48.20
51719;DHT22;37795;53.236;5.704;2022-12-10T07:55:32;18.80;49.10
51719;DHT22;37795;53.236;5.704;2022-12-10T07:57:58;18.10;50.20
51719;DHT22;37795;53.236;5.704;2022-12-10T08:00:23;17.50;51.60
51719;DHT22;37795;53.236;5.704;2022-12-10T08:02:49;16.90;52.60
51719;DHT22;37795;53.236;5.704;2022-12-10T08:05:15;16.40;53.90
51719;DHT22;37795;53.236;5.704;2022-12-10T08:07:40;15.90;54.90
51719;DHT22;37795;53.236;5.704;2022-12-10T08:10:06;15.60;55.70
51719;DHT22;37795;53.236;5.704;2022-12-10T08:12:32;15.40;56.20
51719;DHT22;37795;53.236;5.704;2022-12-10T08:14:58;15.30;56.50
51719;DHT22;37795;53.236;5.704;2022-12-10T08:17:23;15.20;57.50
51719;DHT22;37795;53.236;5.704;2022-12-10T08:19:49;15.10;58.80
51719;DHT22;37795;53.236;5.704;2022-12-10T08:22:16;14.80;60.00
51719;DHT22;37795;53.236;5.704;2022-12-10T08:24:42;14.70;60.20
51719;DHT22;37795;53.236;5.704;2022-12-10T08:27:07;14.60;60.70
51719;DHT22;37795;53.236;5.704;2022-12-10T08:29:33;14.40;61.40
51719;DHT22;37795;53.236;5.704;2022-12-10T08:31:59;14.20;62.10
51719;DHT22;37795;53.236;5.704;2022-12-10T08:34:24;14.20;62.40
51719;DHT22;37795;53.236;5.704;2022-12-10T08:36:50;14.20;62.40
51719;DHT22;37795;53.236;5.704;2022-12-10T08:39:16;14.10;62.80
51719;DHT22;37795;53.236;5.704;2022-12-10T08:41:43;14.00;63.00
51719;DHT22;37795;53.236;5.704;2022-12-10T08:44:10;14.00;63.30
51719;DHT22;37795;53.236;5.704;2022-12-10T08:46:37;13.90;63.60
51719;DHT22;37795;53.236;5.704;2022-12-10T08:49:03;14.00;63.90
51719;DHT22;37795;53.236;5.704;2022-12-10T08:51:29;14.00;63.80
51719;DHT22;37795;53.236;5.704;2022-12-10T08:53:55;14.10;63.80
51719;DHT22;37795;53.236;5.704;2022-12-10T08:56:21;14.10;63.70
51719;DHT22;37795;53.236;5.704;2022-12-10T08:58:47;14.20;63.70
51719;DHT22;37795;53.236;5.704;2022-12-10T09:01:15;14.20;63.70
51719;DHT22;37795;53.236;5.704;2022-12-10T09:03:41;14.30;63.70
51719;DHT22;37795;53.236;5.704;2022-12-10T09:06:12;14.40;63.50
51719;DHT22;37795;53.236;5.704;2022-12-10T09:08:38;14.40;63.40
51719;DHT22;37795;53.236;5.704;2022-12-10T09:11:11;14.50;63.40
51719;DHT22;37795;53.236;5.704;2022-12-10T09:13:37;14.60;63.40
51719;DHT22;37795;53.236;5.704;2022-12-10T09:16:03;14.60;63.30
51719;DHT22;37795;53.236;5.704;2022-12-10T09:18:29;14.70;63.30
51719;DHT22;37795;53.236;5.704;2022-12-10T09:20:54;14.80;63.10
51719;DHT22;37795;53.236;5.704;2022-12-10T09:23:20;14.90;63.10
51719;DHT22;37795;53.236;5.704;2022-12-10T09:25:46;14.90;63.00
51719;DHT22;37795;53.236;5.704;2022-12-10T09:28:11;15.00;63.00
51719;DHT22;37795;53.236;5.704;2022-12-10T09:30:37;15.00;62.80
51719;DHT22;37795;53.236;5.704;2022-12-10T09:33:03;15.10;62.80
51719;DHT22;37795;53.236;5.704;2022-12-10T09:35:29;15.10;62.70
51719;DHT22;37795;53.236;5.704;2022-12-10T09:37:54;15.20;62.60
51719;DHT22;37795;53.236;5.704;2022-12-10T09:40:37;15.20;62.60
51719;DHT22;37795;53.236;5.704;2022-12-10T09:43:25;15.30;62.60
51719;DHT22;37795;53.236;5.704;2022-12-10T09:46:17;15.40;62.50
51719;DHT22;37795;53.236;5.704;2022-12-10T09:49:23;15.50;62.30
51719;DHT22;37795;53.236;5.704;2022-12-10T09:51:46;15.50;62.30
51719;DHT22;37795;53.236;5.704;2022-12-10T09:56:47;15.70;62.10
51719;DHT22;37795;53.236;5.704;2022-12-10T09:59:22;15.70;61.90
51719;DHT22;37795;53.236;5.704;2022-12-10T10:04:29;15.90;61.80
51719;DHT22;37795;53.236;5.704;2022-12-10T10:06:55;15.90;61.70
51719;DHT22;37795;53.236;5.704;2022-12-10T10:09:21;16.00;61.70
51719;DHT22;37795;53.236;5.704;2022-12-10T10:11:47;16.00;61.50
51719;DHT22;37795;53.236;5.704;2022-12-10T10:14:19;16.10;61.50
51719;DHT22;37795;53.236;5.704;2022-12-10T10:16:50;16.20;61.50
51719;DHT22;37795;53.236;5.704;2022-12-10T10:19:33;16.30;61.20
51719;DHT22;37795;53.236;5.704;2022-12-10T10:22:00;16.30;61.20
51719;DHT22;37795;53.236;5.704;2022-12-10T10:24:35;16.40;61.20
51719;DHT22;37795;53.236;5.704;2022-12-10T10:27:16;16.40;61.00
51719;DHT22;37795;53.236;5.704;2022-12-10T10:29:47;16.50;61.00
51719;DHT22;37795;53.236;5.704;2022-12-10T10:32:22;16.50;60.90
51719;DHT22;37795;53.236;5.704;2022-12-10T10:34:56;16.60;60.80
51719;DHT22;37795;53.236;5.704;2022-12-10T10:37:31;16.70;60.70
51719;DHT22;37795;53.236;5.704;2022-12-10T10:40:06;16.70;60.70
51719;DHT22;37795;53.236;5.704;2022-12-10T10:42:39;16.80;60.60
51719;DHT22;37795;53.236;5.704;2022-12-10T10:45:38;16.90;60.30
51719;DHT22;37795;53.236;5.704;2022-12-10T10:48:09;17.10;59.90
51719;DHT22;37795;53.236;5.704;2022-12-10T10:50:44;17.20;59.50
51719;DHT22;37795;53.236;5.704;2022-12-10T10:59:06;16.90;60.30
51719;DHT22;37795;53.236;5.704;2022-12-10T11:01:54;16.30;61.30
51719;DHT22;37795;53.236;5.704;2022-12-10T11:04:52;16.20;61.80
51719;DHT22;37795;53.236;5.704;2022-12-10T11:07:21;16.00;62.10
51719;DHT22;37795;53.236;5.704;2022-12-10T11:09:48;15.90;62.40
51719;DHT22;37795;53.236;5.704;2022-12-10T11:12:29;15.80;62.70
51719;DHT22;37795;53.236;5.704;2022-12-10T11:14:58;15.70;62.90
51719;DHT22;37795;53.236;5.704;2022-12-10T11:17:25;15.60;63.10
51719;DHT22;37795;53.236;5.704;2022-12-10T11:20:17;15.50;63.30
51719;DHT22;37795;53.236;5.704;2022-12-10T11:22:51;15.40;63.40
51719;DHT22;37795;53.236;5.704;2022-12-10T11:25:18;15.30;63.60
51719;DHT22;37795;53.236;5.704;2022-12-10T11:27:56;15.20;63.80
51719;DHT22;37795;53.236;5.704;2022-12-10T11:30:26;15.10;63.90
51719;DHT22;37795;53.236;5.704;2022-12-10T11:32:59;15.00;64.00
51719;DHT22;37795;53.236;5.704;2022-12-10T11:35:43;15.00;64.20
51719;DHT22;37795;53.236;5.704;2022-12-10T11:41:42;14.80;64.50
51719;DHT22;37795;53.236;5.704;2022-12-10T11:44:34;14.80;64.60
51719;DHT22;37795;53.236;5.704;2022-12-10T11:47:25;14.70;64.70
51719;DHT22;37795;53.236;5.704;2022-12-10T11:50:23;14.70;64.70
51719;DHT22;37795;53.236;5.704;2022-12-10T12:01:28;14.40;65.20
51719;DHT22;37795;53.236;5.704;2022-12-10T12:07:08;14.40;65.30
51719;DHT22;37795;53.236;5.704;2022-12-10T12:13:00;14.60;64.50
51719;DHT22;37795;53.236;5.704;2022-12-10T12:15:54;14.80;63.90
51719;DHT22;37795;53.236;5.704;2022-12-10T12:18:48;14.90;63.40
51719;DHT22;37795;53.236;5.704;2022-12-10T12:21:15;15.10;62.70
51719;DHT22;37795;53.236;5.704;2022-12-10T12:24:01;15.20;62.30
51719;DHT22;37795;53.236;5.704;2022-12-10T12:26:29;15.20;62.20
51719;DHT22;37795;53.236;5.704;2022-12-10T12:31:40;15.00;62.20
51719;DHT22;37795;53.236;5.704;2022-12-10T12:34:24;14.90;62.50
51719;DHT22;37795;53.236;5.704;2022-12-10T12:36:52;14.80;62.70
51719;DHT22;37795;53.236;5.704;2022-12-10T12:39:32;14.70;63.00
51719;DHT22;37795;53.236;5.704;2022-12-10T12:42:01;14.60;63.30
51719;DHT22;37795;53.236;5.704;2022-12-10T12:46:58;14.40;63.80
51719;DHT22;37795;53.236;5.704;2022-12-10T12:49:37;14.30;64.00
51719;DHT22;37795;53.236;5.704;2022-12-10T12:52:28;14.20;64.20
51719;DHT22;37795;53.236;5.704;2022-12-10T12:54:57;14.10;64.40
51719;DHT22;37795;53.236;5.704;2022-12-10T12:57:42;14.00;64.60
51719;DHT22;37795;53.236;5.704;2022-12-10T13:00:16;14.00;64.70
51719;DHT22;37795;53.236;5.704;2022-12-10T13:03:00;13.90;64.90
51719;DHT22;37795;53.236;5.704;2022-12-10T13:05:35;13.90;65.10
51719;DHT22;37795;53.236;5.704;2022-12-10T13:13:30;13.80;65.30
51719;DHT22;37795;53.236;5.704;2022-12-10T13:16:01;14.00;64.60
51719;DHT22;37795;53.236;5.704;2022-12-10T13:18:42;14.20;64.00
51719;DHT22;37795;53.236;5.704;2022-12-10T13:21:27;14.50;63.30
51719;DHT22;37795;53.236;5.704;2022-12-10T13:24:05;14.70;62.70
51719;DHT22;37795;53.236;5.704;2022-12-10T13:26:31;14.80;62.40
51719;DHT22;37795;53.236;5.704;2022-12-10T13:29:25;14.80;62.60
51719;DHT22;37795;53.236;5.704;2022-12-10T13:32:18;14.80;62.60
51719;DHT22;37795;53.236;5.704;2022-12-10T13:34:44;14.80;62.90
51719;DHT22;37795;53.236;5.704;2022-12-10T13:42:42;14.70;63.40
51719;DHT22;37795;53.236;5.704;2022-12-10T13:45:32;14.80;63.60
51719;DHT22;37795;53.236;5.704;2022-12-10T13:53:45;15.00;63.60
51719;DHT22;37795;53.236;5.704;2022-12-10T13:56:28;15.10;63.50
51719;DHT22;37795;53.236;5.704;2022-12-10T13:59:19;15.20;63.40
51719;DHT22;37795;53.236;5.704;2022-12-10T14:07:19;15.60;62.60
51719;DHT22;37795;53.236;5.704;2022-12-10T14:09:50;15.80;62.20
51719;DHT22;37795;53.236;5.704;2022-12-10T14:12:33;15.80;62.00
51719;DHT22;37795;53.236;5.704;2022-12-10T14:15:04;15.70;62.10
51719;DHT22;37795;53.236;5.704;2022-12-10T14:17:38;15.70;62.30
51719;DHT22;37795;53.236;5.704;2022-12-10T14:20:07;15.80;61.90
51719;DHT22;37795;53.236;5.704;2022-12-10T14:22:37;16.00;61.30
51719;DHT22;37795;53.236;5.704;2022-12-10T14:25:09;16.10;61.00
51719;DHT22;37795;53.236;5.704;2022-12-10T14:27:36;16.10;60.90
51719;DHT22;37795;53.236;5.704;2022-12-10T14:32:42;16.10;60.60
51719;DHT22;37795;53.236;5.704;2022-12-10T14:35:13;16.10;60.50
51719;DHT22;37795;53.236;5.704;2022-12-10T14:37:45;16.00;60.60
51719;DHT22;37795;53.236;5.704;2022-12-10T14:40:26;15.90;60.80
51719;DHT22;37795;53.236;5.704;2022-12-10T14:42:59;15.70;61.10
51719;DHT22;37795;53.236;5.704;2022-12-10T14:45:36;15.50;61.40
51719;DHT22;37795;53.236;5.704;2022-12-10T14:48:04;15.40;61.90
51719;DHT22;37795;53.236;5.704;2022-12-10T14:50:32;15.20;62.20
51719;DHT22;37795;53.236;5.704;2022-12-10T14:53:00;15.00;62.50
51719;DHT22;37795;53.236;5.704;2022-12-10T14:55:26;14.80;63.00
51719;DHT22;37795;53.236;5.704;2022-12-10T14:57:58;14.80;63.20
51719;DHT22;37795;53.236;5.704;2022-12-10T15:00:24;14.60;63.60
51719;DHT22;37795;53.236;5.704;2022-12-10T15:02:56;14.50;63.80
51719;DHT22;37795;53.236;5.704;2022-12-10T15:05:26;14.40;64.00
51719;DHT22;37795;53.236;5.704;2022-12-10T15:07:54;14.30;64.20
51719;DHT22;37795;53.236;5.704;2022-12-10T15:10:25;14.20;64.40
51719;DHT22;37795;53.236;5.704;2022-12-10T15:12:53;14.10;64.60
51719;DHT22;37795;53.236;5.704;2022-12-10T15:15:28;14.10;64.70
51719;DHT22;37795;53.236;5.704;2022-12-10T15:17:58;14.00;64.90
51719;DHT22;37795;53.236;5.704;2022-12-10T15:20:31;13.90;65.10
51719;DHT22;37795;53.236;5.704;2022-12-10T15:28:39;13.90;65.30
51719;DHT22;37795;53.236;5.704;2022-12-10T15:34:01;13.70;65.20
51719;DHT22;37795;53.236;5.704;2022-12-10T15:36:33;13.70;65.50
51719;DHT22;37795;53.236;5.704;2022-12-10T15:39:15;13.60;65.60
51719;DHT22;37795;53.236;5.704;2022-12-10T15:41:49;13.60;65.60
51719;DHT22;37795;53.236;5.704;2022-12-10T15:49:27;13.40;66.00
51719;DHT22;37795;53.236;5.704;2022-12-10T15:51:53;13.40;66.00
51719;DHT22;37795;53.236;5.704;2022-12-10T15:54:34;13.30;66.00
51719;DHT22;37795;53.236;5.704;2022-12-10T15:57:15;13.30;66.00
51719;DHT22;37795;53.236;5.704;2022-12-10T15:59:42;13.20;66.20
51719;DHT22;37795;53.236;5.704;2022-12-10T16:04:44;13.40;66.40
51719;DHT22;37795;53.236;5.704;2022-12-10T16:07:10;13.50;66.40
51719;DHT22;37795;53.236;5.704;2022-12-10T16:09:36;13.60;66.20
51719;DHT22;37795;53.236;5.704;2022-12-10T16:12:01;13.80;66.00
51719;DHT22;37795;53.236;5.704;2022-12-10T16:14:27;13.90;65.60
51719;DHT22;37795;53.236;5.704;2022-12-10T16:16:53;14.10;66.80
51719;DHT22;37795;53.236;5.704;2022-12-10T16:19:18;14.20;66.30
51719;DHT22;37795;53.236;5.704;2022-12-10T16:21:44;14.50;65.20
51719;DHT22;37795;53.236;5.704;2022-12-10T16:24:11;14.80;64.70
51719;DHT22;37795;53.236;5.704;2022-12-10T16:26:37;14.90;64.10
51719;DHT22;37795;53.236;5.704;2022-12-10T16:29:02;14.90;64.00
51719;DHT22;37795;53.236;5.704;2022-12-10T16:31:28;14.90;64.00
51719;DHT22;37795;53.236;5.704;2022-12-10T16:33:55;14.80;64.00
51719;DHT22;37795;53.236;5.704;2022-12-10T16:36:21;14.80;64.40
51719;DHT22;37795;53.236;5.704;2022-12-10T16:38:47;14.80;64.60
51719;DHT22;37795;53.236;5.704;2022-12-10T16:41:23;14.90;64.90
51719;DHT22;37795;53.236;5.704;2022-12-10T16:43:49;15.20;63.90
51719;DHT22;37795;53.236;5.704;2022-12-10T16:46:15;15.40;63.20
51719;DHT22;37795;53.236;5.704;2022-12-10T16:48:41;15.30;63.00
51719;DHT22;37795;53.236;5.704;2022-12-10T16:51:25;15.10;63.40
51719;DHT22;37795;53.236;5.704;2022-12-10T16:53:54;14.90;63.70
51719;DHT22;37795;53.236;5.704;2022-12-10T16:56:21;14.80;64.10
51719;DHT22;37795;53.236;5.704;2022-12-10T16:58:46;14.70;64.40
51719;DHT22;37795;53.236;5.704;2022-12-10T17:01:23;14.50;64.70
51719;DHT22;37795;53.236;5.704;2022-12-10T17:03:50;14.50;64.80
51719;DHT22;37795;53.236;5.704;2022-12-10T17:06:18;14.40;65.00
51719;DHT22;37795;53.236;5.704;2022-12-10T17:08:44;14.30;65.20
51719;DHT22;37795;53.236;5.704;2022-12-10T17:11:20;14.20;65.30
51719;DHT22;37795;53.236;5.704;2022-12-10T17:14:08;14.30;65.30
51719;DHT22;37795;53.236;5.704;2022-12-10T17:16:34;14.70;64.40
51719;DHT22;37795;53.236;5.704;2022-12-10T17:19:00;14.90;63.80
51719;DHT22;37795;53.236;5.704;2022-12-10T17:21:26;15.00;63.30
51719;DHT22;37795;53.236;5.704;2022-12-10T17:23:52;15.20;62.80
51719;DHT22;37795;53.236;5.704;2022-12-10T17:26:27;15.30;62.40
51719;DHT22;37795;53.236;5.704;2022-12-10T17:28:56;15.40;62.00
51719;DHT22;37795;53.236;5.704;2022-12-10T17:31:24;15.30;61.20
51719;DHT22;37795;53.236;5.704;2022-12-10T17:33:49;15.30;61.10